Grand Tower, IL (62942)

4:21 AM CDT on August 29, 2016 (GMT -0500)
SIU Physical Plant | | Change Station

Elev 430 ft 37.71 °N, 89.22 °W | Updated 9 minutes ago

Clear
Clear
76.1 °F
Feels Like 76 °F
N
2.0
Wind Variable Wind from SW
Gusts 3.0 mph

Today
High -- | Low -- °F
--% Chance of Precip.
Yesterday
High -- | Low -- °F
Precip. -- in
Pressure 30.12 in
Visibility 1.8 miles
Clouds Clear
Heat Index 76 °F
Dew Point 74 °F
Humidity 92%
Rainfall 0.00 in
Snow Depth Not available.
6:25 AM 7:30 PM
Waning Crescent, 10% visible
SPECI KMDH 290907Z AUTO 00000KT 1 3/4SM BR CLR 22/21 A3012 RMK AO2 T02220211
Pressure 30.12 in
Visibility 1.8 miles
Clouds Clear
Heat Index 76 °F
Dew Point 74 °F
Humidity 92%
Rainfall 0.00 in
Snow Depth Not available.
6:25 AM 7:30 PM
Waning Crescent, 10% visible
SPECI KMDH 290907Z AUTO 00000KT 1 3/4SM BR CLR 22/21 A3012 RMK AO2 T02220211

10-Day Weather Forecast

Almanac

Astronomy

Aug. 29, 2016 Rise Set
Actual Time
Civil Twilight
Nautical Twilight
Astronomical Twilight
Moon
Length of Visible Light
Length of Day
Tomorrow will be .
, % of the Moon is Illuminated

Today's Extremes

State Highs State Lows

Community

WunderPhotos

Upload Photos

1,935,798 photos uploaded!

WunderBlog® & News

Nearby

Air Quality

  Air Quality AQ Index Pollutant
Not available.

Snow Depth

Station Depth Elevation

Earthquake Activity

City Distance Mag. Time & Date
Minimum magnitude displayed is 2.5.

Coastal Water Temperatures

Place Temperature

Stations

Nearby Weather Stations

Station Location Temp. Windchill Dew Point Humidity Wind Precip. Elev Updated Type
                   

Watches & Warnings

There are currently no watches in effect.